Time;durP1;ratioP1;P1;durP2;ratioP2;P2;SDS_P1;SDS_P2;PMS_P1;PMS_P2;Temp;Humidity;BMP_temperature;BMP_pressure;BME280_temperature;BME280_humidity;BME280_pressure;Samples;Min_cycle;Max_cycle;Signal;HPM_P1;HPM_P2
2022/02/11 00:08:07;;;;;;;10.82;8.45;;;;;;;6.18;71.86;100580.45;2158038;82;29455;-68
2022/02/11 00:11:09;;;;;;;9.78;6.15;;;;;;;6.17;71.90;100584.50;2158060;82;31826;-66
2022/02/11 00:14:11;;;;;;;5.70;4.08;;;;;;;6.16;71.89;100587.60;2158092;82;33761;-66
2022/02/11 00:17:14;;;;;;;7.15;4.12;;;;;;;6.15;72.02;100592.50;2164961;81;28801;-66
2022/02/11 00:20:16;;;;;;;6.75;4.03;;;;;;;6.13;71.97;100584.16;2178330;81;27695;-66
2022/02/11 00:23:20;;;;;;;7.28;4.03;;;;;;;6.12;71.92;100589.95;2177751;81;28554;-66
2022/02/11 00:26:28;;;;;;;5.72;3.20;;;;;;;6.11;71.92;100583.33;2178132;81;31087;-66
2022/02/11 00:30:24;;;;;;;3.47;2.60;;;;;;;6.08;71.87;100586.48;2177462;81;33907;-66
2022/02/11 00:36:09;;;;;;;5.75;3.10;;;;;;;6.01;72.00;100574.27;2178317;81;27753;-65
2022/02/11 00:45:48;;;;;;;4.40;3.15;;;;;;;5.98;72.12;100582.30;2157892;82;33066;-65
2022/02/11 01:05:08;;;;;;;7.08;4.75;;;;;;;5.97;72.59;100584.97;2161453;81;29436;-65
2022/02/11 01:08:10;;;;;;;5.90;4.17;;;;;;;5.96;72.54;100576.61;2123717;82;27842;-65
2022/02/11 01:11:19;;;;;;;6.62;4.10;;;;;;;5.95;72.57;100579.70;2197405;81;28698;-65
2022/02/11 01:14:19;;;;;;;6.85;4.35;;;;;;;5.95;72.65;100575.72;2196781;81;31042;-66
2022/02/11 01:20:47;;;;;;;11.43;7.23;;;;;;;5.93;72.66;100565.13;2178656;81;30047;-66
2022/02/11 01:23:55;;;;;;;10.43;7.03;;;;;;;5.94;72.74;100560.67;2177765;81;28200;-65
2022/02/11 01:46:15;;;;;;;7.20;5.67;;;;;;;5.95;72.99;100561.56;2178443;81;31910;-65
2022/02/11 01:49:17;;;;;;;8.38;6.55;;;;;;;5.94;72.96;100564.66;2174806;81;32994;-66
2022/02/11 01:55:29;;;;;;;7.70;5.95;;;;;;;5.93;73.05;100560.25;2137894;83;27617;-65
2022/02/11 01:58:54;;;;;;;8.55;6.17;;;;;;;5.93;73.04;100553.61;2134988;83;28682;-65
2022/02/11 02:01:54;;;;;;;8.48;6.35;;;;;;;5.91;73.03;100551.44;2141633;81;31041;-65
2022/02/11 02:11:27;;;;;;;12.10;7.78;;;;;;;5.90;73.22;100543.05;2177791;81;27797;-65
2022/02/11 02:21:24;;;;;;;12.47;8.65;;;;;;;5.89;73.42;100540.86;2118180;83;33771;-66
2022/02/11 02:23:58;;;;;;;10.28;7.92;;;;;;;5.90;73.47;100540.39;2120089;82;30129;-65
2022/02/11 02:31:26;;;;;;;12.98;9.00;;;;;;;5.89;73.55;100527.56;2151254;82;29563;-66
2022/02/11 02:37:14;;;;;;;13.95;8.70;;;;;;;5.90;73.70;100516.45;2114185;84;33035;-65
2022/02/11 02:56:45;;;;;;;14.70;9.78;;;;;;;5.97;73.87;100514.50;2136545;81;29459;-65
2022/02/11 03:49:13;;;;;;;18.40;10.45;;;;;;;5.94;74.27;100480.90;2104984;84;27730;-67
2022/02/11 03:55:44;;;;;;;15.77;10.83;;;;;;;5.92;74.47;100467.66;2082850;84;31039;-67
2022/02/11 03:59:12;;;;;;;18.15;11.08;;;;;;;5.95;74.59;100458.72;2079953;84;33036;-67
2022/02/11 04:22:01;;;;;;;17.45;11.43;;;;;;;5.87;74.88;100448.30;2124811;83;27763;-66
2022/02/11 05:00:42;;;;;;;18.25;12.18;;;;;;;5.77;75.40;100433.52;2126278;83;31015;-67
2022/02/11 05:03:44;;;;;;;17.20;12.25;;;;;;;5.75;75.43;100424.24;2145880;83;33750;-67
2022/02/11 05:06:45;;;;;;;17.67;11.65;;;;;;;5.75;75.46;100415.41;2159211;82;29312;-69
2022/02/11 05:09:47;;;;;;;15.48;11.73;;;;;;;5.75;75.49;100425.58;2137909;82;27729;-67
2022/02/11 05:12:48;;;;;;;18.12;12.78;;;;;;;5.73;75.51;100419.89;2200903;80;29440;-67
2022/02/11 05:15:51;;;;;;;20.62;12.60;;;;;;;5.72;75.56;100419.48;2200703;80;30993;-67
2022/02/11 05:18:53;;;;;;;17.37;12.35;;;;;;;5.73;75.58;100414.58;2162513;81;32927;-67
2022/02/11 05:21:55;;;;;;;19.17;13.08;;;;;;;5.70;75.59;100411.56;2145564;83;30117;-68
2022/02/11 05:24:56;;;;;;;19.92;12.10;;;;;;;5.69;75.61;100414.24;2159066;82;28215;-68
2022/02/11 05:27:58;;;;;;;17.30;11.97;;;;;;;5.68;75.63;100416.05;2158971;82;28872;-67
2022/02/11 05:31:00;;;;;;;21.05;12.82;;;;;;;5.68;75.67;100416.05;2130445;82;31026;-68
2022/02/11 05:34:02;;;;;;;18.12;12.05;;;;;;;5.68;75.67;100416.48;2200466;80;33001;-69
2022/02/11 05:37:04;;;;;;;22.40;13.05;;;;;;;5.68;75.70;100420.03;2200761;80;29313;-68
2022/02/11 05:40:07;;;;;;;20.25;13.58;;;;;;;5.67;75.71;100424.04;2182002;80;28621;-68
2022/02/11 05:43:09;;;;;;;21.93;13.80;;;;;;;5.67;75.67;100426.70;2168590;82;28653;-69
2022/02/11 05:46:11;;;;;;;25.88;17.40;;;;;;;5.66;75.77;100421.85;2183736;81;31832;-69
2022/02/11 05:49:13;;;;;;;39.18;26.65;;;;;;;5.65;75.73;100425.42;2156065;82;33737;-68
2022/02/11 05:52:15;;;;;;;42.00;25.15;;;;;;;5.64;75.71;100428.99;2119357;84;29376;-69
2022/02/11 05:55:17;;;;;;;30.92;21.48;;;;;;;5.60;75.66;100431.31;2157579;81;27533;-69
2022/02/11 05:58:18;;;;;;;23.50;16.40;;;;;;;5.58;75.76;100439.34;2155418;82;29502;-68
2022/02/11 06:01:20;;;;;;;22.22;14.00;;;;;;;5.55;75.76;100431.44;2119181;84;31109;-68
2022/02/11 06:04:24;;;;;;;20.68;12.37;;;;;;;5.53;75.86;100426.62;2169011;82;33038;-68
2022/02/11 06:07:26;;;;;;;19.05;11.70;;;;;;;5.52;75.89;100431.52;2150086;82;29344;-67
2022/02/11 06:10:28;;;;;;;18.85;10.95;;;;;;;5.50;75.92;100431.16;2119458;84;27689;-67
2022/02/11 06:13:29;;;;;;;21.07;11.65;;;;;;;5.47;75.86;100440.95;2158190;82;28881;-68
2022/02/11 06:16:31;;;;;;;13.48;8.55;;;;;;;5.46;75.95;100433.88;2166786;81;31066;-67
2022/02/11 06:19:33;;;;;;;10.23;6.55;;;;;;;5.42;75.76;100434.88;2178651;81;32966;-67
2022/02/11 06:22:34;;;;;;;12.78;6.83;;;;;;;5.36;75.62;100435.48;2176555;81;29166;-68
2022/02/11 06:25:36;;;;;;;9.20;6.25;;;;;;;5.33;75.73;100447.94;2137367;83;27711;-67
2022/02/11 06:28:38;;;;;;;10.05;6.35;;;;;;;5.30;75.80;100438.70;2145707;83;28636;-67
2022/02/11 06:31:40;;;;;;;11.43;6.70;;;;;;;5.30;75.81;100445.82;2159114;82;31812;-66
2022/02/11 06:34:42;;;;;;;11.25;7.37;;;;;;;5.28;75.83;100444.98;2128010;82;32967;-67
2022/02/11 06:37:45;;;;;;;15.10;7.87;;;;;;;5.24;75.79;100442.87;2157425;82;29489;-67
2022/02/11 06:40:47;;;;;;;15.38;7.50;;;;;;;5.22;75.85;100448.67;2155590;82;27647;-67
2022/02/11 06:43:49;;;;;;;11.60;7.00;;;;;;;5.20;75.85;100454.47;2119289;84;29622;-66
2022/02/11 06:46:51;;;;;;;12.15;7.55;;;;;;;5.17;75.90;100458.09;2157389;82;32066;-67
2022/02/11 06:49:53;;;;;;;11.78;7.65;;;;;;;5.15;75.99;100456.36;2157992;82;32958;-66
2022/02/11 06:52:55;;;;;;;13.05;7.95;;;;;;;5.14;76.04;100458.59;2155430;82;30137;-66
2022/02/11 06:55:57;;;;;;;14.55;9.40;;;;;;;5.12;76.10;100457.79;2157439;82;27791;-67
2022/02/11 06:59:00;;;;;;;9.73;7.65;;;;;;;5.11;76.12;100457.37;2155458;82;29533;-66
2022/02/11 07:02:02;;;;;;;12.78;8.25;;;;;;;5.08;76.03;100457.44;2119906;82;31032;-69
2022/02/11 07:05:05;;;;;;;17.32;9.58;;;;;;;5.07;76.17;100463.66;2158086;81;33049;-66
2022/02/11 07:08:07;;;;;;;28.70;15.15;;;;;;;5.06;76.15;100465.89;2158111;81;29375;-67
2022/02/11 07:11:10;;;;;;;45.95;23.45;;;;;;;5.02;76.13;100457.14;2158367;81;27653;-67
2022/02/11 07:14:12;;;;;;;28.30;17.20;;;;;;;5.01;76.14;100462.89;2157166;82;28652;-67
2022/02/11 07:17:14;;;;;;;15.30;7.92;;;;;;;4.98;76.13;100458.97;2158388;81;31846;-67
2022/02/11 07:20:15;;;;;;;8.90;6.60;;;;;;;4.93;76.07;100468.84;2158371;81;33193;-67
2022/02/11 07:23:17;;;;;;;7.42;4.72;;;;;;;4.87;76.08;100463.67;2157682;82;29319;-67
2022/02/11 07:26:19;;;;;;;7.58;5.67;;;;;;;4.81;76.03;100467.34;2158574;81;27680;-67
2022/02/11 07:29:21;;;;;;;3.60;2.85;;;;;;;4.78;76.03;100467.87;2158539;81;29482;-67
2022/02/11 07:32:25;;;;;;;4.70;2.87;;;;;;;4.71;75.77;100465.36;2158595;81;31009;-67
2022/02/11 07:35:27;;;;;;;9.10;6.00;;;;;;;4.68;75.75;100464.56;2158497;82;33015;-67
2022/02/11 07:38:30;;;;;;;5.33;4.60;;;;;;;4.66;75.93;100473.86;2158188;81;29311;-68
2022/02/11 07:41:32;;;;;;;4.28;3.55;;;;;;;4.64;75.86;100476.14;2191403;81;27715;-67
2022/02/11 07:44:34;;;;;;;4.12;2.95;;;;;;;4.61;75.82;100475.77;2191132;81;29623;-68
2022/02/11 07:47:36;;;;;;;5.95;3.62;;;;;;;4.58;75.79;100478.48;2119455;83;31993;-67
2022/02/11 07:50:38;;;;;;;4.70;3.22;;;;;;;4.52;75.61;100476.84;2161946;82;32953;-67
2022/02/11 07:53:40;;;;;;;5.17;2.98;;;;;;;4.46;75.68;100485.39;2119963;82;30202;-67
2022/02/11 07:56:42;;;;;;;4.08;3.25;;;;;;;4.44;75.67;100492.03;2156412;82;27652;-67
2022/02/11 07:59:44;;;;;;;5.37;3.60;;;;;;;4.35;75.66;100487.80;2192274;81;28762;-67
2022/02/11 08:02:46;;;;;;;5.40;3.55;;;;;;;4.34;75.87;100494.47;2176288;81;30861;-67
2022/02/11 08:05:49;;;;;;;7.08;4.78;;;;;;;4.29;75.83;100495.01;2163648;81;33136;-66
2022/02/11 08:08:51;;;;;;;7.42;5.30;;;;;;;4.23;75.71;100504.83;2119983;83;29461;-67
2022/02/11 08:11:54;;;;;;;6.90;3.80;;;;;;;4.17;75.77;100498.78;2159955;82;27719;-67
2022/02/11 08:14:57;;;;;;;7.83;4.20;;;;;;;4.10;75.63;100497.59;2160042;82;28669;-67
2022/02/11 08:17:58;;;;;;;6.03;3.92;;;;;;;4.02;75.48;100511.91;2158403;82;31037;-67
2022/02/11 08:21:01;;;;;;;5.42;3.72;;;;;;;3.96;75.50;100511.57;2117044;84;32970;-67
2022/02/11 08:24:03;;;;;;;7.22;4.55;;;;;;;3.91;75.48;100508.13;2190566;80;29323;-67
2022/02/11 08:27:05;;;;;;;7.00;3.65;;;;;;;3.86;75.39;100506.89;2195676;81;28303;-67
2022/02/11 08:30:08;;;;;;;5.58;3.75;;;;;;;3.79;75.27;100507.89;2194703;81;29634;-67
2022/02/11 08:33:11;;;;;;;5.62;3.83;;;;;;;3.74;75.34;100510.63;2195745;81;31025;-67
2022/02/11 08:36:12;;;;;;;6.33;4.35;;;;;;;3.72;75.16;100512.89;2195953;81;32461;-68
2022/02/11 08:39:16;;;;;;;7.47;4.05;;;;;;;3.69;75.25;100508.97;2196028;81;30094;-67
2022/02/11 08:42:19;;;;;;;5.22;3.50;;;;;;;3.66;75.25;100509.88;2195588;81;27675;-67
2022/02/11 08:45:20;;;;;;;14.40;3.58;;;;;;;3.67;75.30;100515.60;2195403;81;28677;-67
2022/02/11 08:48:22;;;;;;;9.40;3.10;;;;;;;3.63;75.24;100525.39;2184641;81;31262;-67
2022/02/11 08:51:25;;;;;;;6.12;3.42;;;;;;;3.61;75.26;100535.13;2189194;81;33818;-67
2022/02/11 08:54:27;;;;;;;3.65;2.42;;;;;;;3.60;75.32;100538.69;2156678;81;29369;-67
2022/02/11 08:57:29;;;;;;;3.92;2.62;;;;;;;3.55;75.09;100541.87;2125158;83;28157;-67
2022/02/11 09:00:31;;;;;;;5.03;2.60;;;;;;;3.51;75.24;100549.45;2124832;83;29675;-67
2022/02/11 09:03:37;;;;;;;6.05;3.62;;;;;;;3.50;75.55;100549.88;2124932;83;31022;-67
2022/02/11 09:06:38;;;;;;;;;;;;;;;3.55;75.60;100541.87;2127471;83;32411;-67
2022/02/11 09:09:40;;;;;;;5.92;3.30;;;;;;;3.58;75.60;100540.48;2162972;82;30271;-67
2022/02/11 09:12:42;;;;;;;6.72;3.50;;;;;;;3.55;75.45;100535.26;2132292;82;27700;-67
2022/02/11 09:15:45;;;;;;;5.55;3.65;;;;;;;3.54;75.31;100533.94;2121564;83;28670;-67
2022/02/11 09:18:47;;;;;;;19.05;7.78;;;;;;;3.55;75.45;100544.97;2125115;83;31098;-68
2022/02/11 09:21:49;;;;;;;35.03;14.05;;;;;;;3.57;75.48;100556.41;2125758;83;32998;-68
2022/02/11 09:24:53;;;;;;;26.02;11.38;;;;;;;3.57;75.30;100563.89;2125417;83;29350;-68
2022/02/11 09:27:54;;;;;;;5.87;4.05;;;;;;;3.55;75.37;100576.75;2125125;83;27774;-67
2022/02/11 09:30:56;;;;;;;7.03;3.67;;;;;;;3.57;75.43;100580.25;2124977;83;29570;-68
2022/02/11 09:34:06;;;;;;;13.83;6.35;;;;;;;3.55;75.41;100583.38;2124847;83;30947;-68
2022/02/11 09:37:07;;;;;;;11.83;5.95;;;;;;;3.55;75.48;100586.91;2125161;82;32983;-68
2022/02/11 09:40:14;;;;;;;12.58;7.22;;;;;;;3.57;75.58;100580.25;2125082;82;29390;-68
2022/02/11 09:43:17;;;;;;;12.05;7.35;;;;;;;3.59;75.64;100587.73;2125242;83;27692;-68
2022/02/11 09:46:19;;;;;;;9.40;7.12;;;;;;;3.66;75.80;100589.36;2125465;82;29476;-67
2022/02/11 09:49:21;;;;;;;6.97;5.85;;;;;;;3.74;75.71;100592.77;2124428;83;31031;-67
2022/02/11 09:52:23;;;;;;;7.17;5.22;;;;;;;3.84;75.51;100585.98;2125285;83;33196;-67
2022/02/11 09:55:32;;;;;;;6.97;4.65;;;;;;;3.90;75.52;100599.14;2124773;83;30147;-68
2022/02/11 09:58:35;;;;;;;8.18;6.05;;;;;;;3.97;75.64;100598.14;2124832;83;27706;-68
2022/02/11 10:01:42;;;;;;;7.75;5.62;;;;;;;4.06;75.55;100615.20;2125037;83;29523;-67
2022/02/11 10:04:56;;;;;;;7.65;5.40;;;;;;;4.13;75.47;100618.61;2124813;83;31097;-67
2022/02/11 10:08:00;;;;;;;11.60;7.85;;;;;;;4.20;75.57;100626.89;2125002;83;33123;-67
2022/02/11 10:11:03;;;;;;;10.58;6.33;;;;;;;4.26;75.44;100629.87;2124930;83;28887;-68
2022/02/11 10:14:33;;;;;;;8.35;5.22;;;;;;;4.32;75.56;100628.89;2124830;83;27701;-67
2022/02/11 10:17:33;;;;;;;5.58;4.17;;;;;;;4.38;75.41;100632.30;2125131;82;28682;-67
2022/02/11 10:20:42;;;;;;;8.03;5.53;;;;;;;4.40;75.00;100640.22;2124798;83;31035;-67
2022/02/11 10:23:44;;;;;;;8.18;5.10;;;;;;;4.39;75.03;100644.66;2088695;85;33705;-67
2022/02/11 10:26:48;;;;;;;9.68;6.58;;;;;;;4.42;74.92;100646.37;2162904;82;29170;-67
2022/02/11 10:29:53;;;;;;;9.58;6.33;;;;;;;4.43;74.89;100648.59;2163165;82;27626;-67
2022/02/11 10:32:57;;;;;;;10.40;6.25;;;;;;;4.43;74.63;100649.45;2161594;82;28798;-67
2022/02/11 10:36:00;;;;;;;18.30;9.95;;;;;;;4.43;74.58;100653.89;2162988;81;31244;-68
2022/02/11 10:39:27;;;;;;;10.95;6.17;;;;;;;4.45;74.82;100660.05;2138040;82;34153;-67
2022/02/11 10:42:44;;;;;;;25.90;13.13;;;;;;;4.42;74.38;100667.59;2162198;82;30100;-66
2022/02/11 10:45:46;;;;;;;12.37;7.70;;;;;;;4.40;74.70;100666.73;2162185;82;27693;-66
2022/02/11 10:48:48;;;;;;;18.23;8.38;;;;;;;4.40;74.67;100670.28;2162684;82;28711;-66
2022/02/11 10:51:51;;;;;;;11.40;6.75;;;;;;;4.41;74.76;100676.02;2162092;82;31041;-66
2022/02/11 10:54:55;;;;;;;10.15;5.70;;;;;;;4.40;74.55;100686.64;2164611;80;32407;-66
2022/02/11 10:57:59;;;;;;;9.33;4.80;;;;;;;4.37;74.57;100688.05;2211089;79;29574;-66
2022/02/11 11:01:05;;;;;;;7.10;4.50;;;;;;;4.35;74.47;100693.36;2200587;80;27704;-67
2022/02/11 11:04:07;;;;;;;6.97;4.15;;;;;;;4.29;74.36;100700.55;2200417;80;28719;-66
2022/02/11 11:07:09;;;;;;;9.40;4.60;;;;;;;4.22;74.19;100711.71;2200308;80;31800;-65
2022/02/11 11:10:12;;;;;;;5.60;3.72;;;;;;;4.17;74.38;100701.63;2199739;80;33730;-66
2022/02/11 11:13:16;;;;;;;7.33;3.98;;;;;;;4.10;74.28;100715.00;2156046;82;30106;-66
2022/02/11 11:16:18;;;;;;;5.40;3.77;;;;;;;4.02;74.45;100714.70;2201045;80;27801;-66
2022/02/11 11:19:20;;;;;;;4.03;2.70;;;;;;;4.00;74.59;100722.66;2200946;80;28487;-66
2022/02/11 11:22:33;;;;;;;5.50;3.25;;;;;;;3.97;74.48;100723.16;2162865;80;31082;-66
2022/02/11 11:26:02;;;;;;;5.60;3.90;;;;;;;3.94;74.51;100724.09;2154144;81;32869;-66
2022/02/11 11:29:11;;;;;;;7.80;4.22;;;;;;;3.92;74.46;100724.10;2154136;81;29602;-66
2022/02/11 11:32:13;;;;;;;6.92;3.75;;;;;;;3.92;74.51;100736.03;2122287;82;27776;-67
2022/02/11 11:35:25;;;;;;;5.72;3.47;;;;;;;3.93;74.65;100730.30;2161866;82;28660;-67
2022/02/11 11:38:45;;;;;;;6.05;3.37;;;;;;;3.95;74.63;100733.80;2173720;81;31072;-68
2022/02/11 11:42:14;;;;;;;4.95;3.83;;;;;;;3.94;74.76;100740.86;2161078;81;29037;-67
2022/02/11 11:45:28;;;;;;;7.20;4.00;;;;;;;3.97;74.80;100746.59;2160610;82;30114;-69
2022/02/11 11:48:40;;;;;;;5.58;4.35;;;;;;;4.03;74.96;100750.45;2179578;80;27742;-68
2022/02/11 11:51:51;;;;;;;7.80;5.35;;;;;;;4.09;75.00;100751.69;2186756;81;28109;-68
2022/02/11 11:55:17;;;;;;;8.38;5.97;;;;;;;4.14;74.96;100758.24;2193716;81;31958;-68
2022/02/11 11:58:46;;;;;;;8.48;5.25;;;;;;;4.14;74.84;100756.92;2196152;80;33006;-67
2022/02/11 12:02:11;;;;;;;5.97;4.83;;;;;;;4.17;75.02;100754.22;2170441;80;29331;-65
2022/02/11 12:05:12;;;;;;;7.87;5.50;;;;;;;4.26;75.13;100762.48;2162302;81;27717;-67
2022/02/11 12:08:16;;;;;;;5.47;4.30;;;;;;;4.35;75.15;100757.48;2161536;81;29465;-67
2022/02/11 12:11:18;;;;;;;4.75;3.80;;;;;;;4.45;75.25;100762.19;2161361;82;31033;-67
2022/02/11 12:14:20;;;;;;;7.03;3.85;;;;;;;4.55;75.26;100765.95;2154320;81;33223;-67
2022/02/11 12:17:23;;;;;;;8.30;4.35;;;;;;;4.64;75.25;100768.04;2181017;81;30116;-68
2022/02/11 12:20:25;;;;;;;6.10;4.65;;;;;;;4.72;75.19;100767.44;2149065;82;27648;-68
2022/02/11 12:30:16;;;;;;;9.33;6.65;;;;;;;4.94;74.75;100770.60;2200499;80;33778;-67
2022/02/11 12:33:20;;;;;;;15.13;11.68;;;;;;;5.00;75.04;100775.78;2191012;80;29349;-67
2022/02/11 12:36:22;;;;;;;10.30;8.63;;;;;;;5.04;74.77;100787.23;2149445;82;27637;-67
2022/02/11 12:39:24;;;;;;;11.88;8.83;;;;;;;5.04;74.70;100782.36;2155879;82;28666;-68
2022/02/11 12:42:27;;;;;;;34.95;19.25;;;;;;;5.08;74.96;100783.59;2150818;82;31857;-68
2022/02/11 12:45:36;;;;;;;67.80;35.95;;;;;;;5.18;74.98;100784.30;2200924;80;32962;-68
2022/02/11 12:48:41;;;;;;;40.78;22.13;;;;;;;5.26;74.98;100785.03;2179188;81;30460;-68
2022/02/11 12:52:05;;;;;;;7.33;6.47;;;;;;;5.35;74.81;100795.04;2126851;82;27968;-67
2022/02/11 12:55:16;;;;;;;10.75;7.22;;;;;;;5.41;74.52;100798.91;2132964;82;27682;-69
2022/02/11 12:58:29;;;;;;;10.00;6.92;;;;;;;5.44;74.50;100798.86;2090247;83;28304;-71
2022/02/11 13:01:42;;;;;;;5.95;4.17;;;;;;;5.41;74.09;100791.80;2121443;83;32964;-68
2022/02/11 13:04:59;;;;;;;7.90;5.55;;;;;;;5.46;74.36;100802.36;2139948;81;30158;-68
2022/02/11 13:08:19;;;;;;;10.53;7.42;;;;;;;5.55;74.47;100810.57;2156916;82;27735;-67
2022/02/11 13:11:43;;;;;;;5.20;3.87;;;;;;;5.66;74.44;100803.70;2164487;80;28763;-68
2022/02/11 13:14:51;;;;;;;5.47;4.72;;;;;;;5.60;73.93;100814.91;2085569;85;31098;-68
2022/02/11 13:18:26;;;;;;;4.25;3.47;;;;;;;5.54;73.94;100817.69;2153936;82;33758;-67
2022/02/11 13:21:42;;;;;;;5.28;4.60;;;;;;;5.46;73.76;100819.64;2162715;82;29339;-68
2022/02/11 13:24:44;;;;;;;6.15;5.08;;;;;;;5.43;73.86;100829.85;2137192;81;27659;-68
2022/02/11 13:27:56;;;;;;;4.80;4.28;;;;;;;5.40;73.91;100851.16;2157813;81;29492;-67
2022/02/11 13:31:02;;;;;;;12.65;7.87;;;;;;;5.35;73.79;100849.50;2157737;82;31033;-67
2022/02/11 13:34:07;;;;;;;5.70;5.03;;;;;;;5.25;73.78;100851.02;2172076;81;33630;-67
2022/02/11 13:37:10;;;;;;;6.53;5.40;;;;;;;5.20;73.69;100865.30;2176488;81;30143;-67
2022/02/11 13:40:25;;;;;;;17.67;9.88;;;;;;;5.14;73.69;100855.63;2177711;81;27641;-70
2022/02/11 13:43:48;;;;;;;15.35;8.13;;;;;;;5.15;73.96;100865.35;2166517;81;28220;-70
2022/02/11 13:46:55;;;;;;;12.45;7.08;;;;;;;5.17;73.93;100870.19;2136703;83;31912;-68
2022/02/11 13:50:08;;;;;;;14.23;8.73;;;;;;;5.10;73.72;100879.19;2186782;81;33797;-68
2022/02/11 13:53:11;;;;;;;15.28;7.90;;;;;;;5.01;73.92;100891.70;2167901;81;28761;-68
2022/02/11 13:56:19;;;;;;;12.33;7.30;;;;;;;4.98;73.78;100897.06;2143838;82;28220;-68
2022/02/11 13:59:30;;;;;;;10.60;5.90;;;;;;;4.89;73.76;100899.89;2139800;83;29585;-68
2022/02/11 14:02:32;;;;;;;4.28;3.35;;;;;;;4.85;73.69;100915.43;2139739;83;31057;-70
2022/02/11 14:05:46;;;;;;;5.35;2.72;;;;;;;4.77;73.52;100920.00;2106356;83;32950;-68
2022/02/11 14:11:56;;;;;;;5.60;3.83;;;;;;;4.64;73.60;100926.80;2069511;86;27692;-70
2022/02/11 14:15:05;;;;;;;3.85;3.08;;;;;;;4.64;73.81;100924.14;2045165;86;28817;-81
2022/02/11 14:18:08;;;;;;;7.37;5.50;;;;;;;4.67;73.76;100927.23;2059598;86;31051;-79
2022/02/11 14:21:17;;;;;;;6.72;3.67;;;;;;;4.77;74.09;100923.98;2013872;87;33065;-73
2022/02/11 14:24:22;;;;;;;13.10;7.65;;;;;;;4.86;73.95;100935.77;2000993;87;29414;-69
2022/02/11 14:27:25;;;;;;;50.80;19.95;;;;;;;4.86;73.66;100938.42;2002531;88;27890;-75
2022/02/11 14:30:28;;;;;;;24.87;10.40;;;;;;;4.76;73.38;100940.81;1997349;88;29537;-73
2022/02/11 14:33:31;;;;;;;19.40;8.93;;;;;;;4.69;73.10;100941.35;1946810;91;31292;-78
2022/02/11 14:36:32;;;;;;;22.27;8.93;;;;;;;4.56;73.25;100949.47;1998512;88;32968;-76
2022/02/11 14:39:35;;;;;;;18.48;7.95;;;;;;;4.49;73.28;100947.81;2002341;88;29480;-74
2022/02/11 14:42:38;;;;;;;15.48;6.45;;;;;;;4.45;73.38;100958.50;1997230;88;27724;-77
2022/02/11 14:45:40;;;;;;;18.90;7.83;;;;;;;4.34;73.24;100967.46;2014852;87;29527;-74
2022/02/11 14:48:42;;;;;;;19.07;8.00;;;;;;;4.26;73.41;100975.52;2008669;88;31083;-75
2022/02/11 14:51:46;;;;;;;13.18;5.92;;;;;;;4.22;73.62;100975.12;2062859;84;33030;-75
2022/02/11 14:54:51;;;;;;;6.67;4.08;;;;;;;4.19;73.58;100971.64;2058550;85;29336;-77
2022/02/11 14:57:57;;;;;;;23.35;9.50;;;;;;;4.15;73.70;100966.83;2004782;86;27977;-75
2022/02/11 15:00:56;;;;;;;18.73;8.38;;;;;;;4.12;73.45;100972.63;2017967;86;28723;-75
2022/02/11 15:03:58;;;;;;;17.55;9.00;;;;;;;4.06;73.36;100973.12;2028271;87;31086;-78
2022/02/11 15:07:02;;;;;;;15.50;8.10;;;;;;;4.01;73.55;100973.61;2030652;83;32942;-82
2022/02/11 15:10:06;;;;;;;19.70;8.90;;;;;;;3.98;73.57;100970.13;2108990;83;29358;-76
2022/02/11 15:13:09;;;;;;;15.50;9.10;;;;;;;3.95;73.53;100978.54;2136860;83;27748;-77
2022/02/11 15:16:11;;;;;;;15.28;9.08;;;;;;;3.93;73.47;100982.11;2139162;83;28659;-76
2022/02/11 15:19:13;;;;;;;16.48;8.75;;;;;;;3.90;73.59;100983.00;2139055;83;31036;-78
2022/02/11 15:22:15;;;;;;;13.70;7.95;;;;;;;3.88;73.58;100981.27;2141145;82;33706;-76
2022/02/11 15:25:17;;;;;;;13.32;7.22;;;;;;;3.82;73.58;100980.90;2144110;82;30118;-79
2022/02/11 15:28:19;;;;;;;19.12;8.85;;;;;;;3.80;73.62;100988.88;2117429;84;28384;-77
2022/02/11 15:31:21;;;;;;;17.30;8.95;;;;;;;3.80;73.76;100989.31;2193511;81;28704;-75
2022/02/11 15:34:23;;;;;;;11.65;7.30;;;;;;;3.78;73.78;100991.98;2159214;81;31072;-77
2022/02/11 15:37:25;;;;;;;17.05;9.98;;;;;;;3.76;73.76;100991.55;2145768;82;33120;-77
2022/02/11 15:40:29;;;;;;;16.32;9.88;;;;;;;3.72;73.78;100990.72;2157338;82;30429;-77
2022/02/11 15:43:34;;;;;;;23.90;13.30;;;;;;;3.69;73.88;100999.16;2146153;82;27713;-76
2022/02/11 15:46:37;;;;;;;22.58;11.70;;;;;;;3.65;73.95;101002.25;2135484;83;27688;-79
2022/02/11 15:49:39;;;;;;;20.45;10.82;;;;;;;3.62;74.05;101002.31;2139314;83;31002;-77
2022/02/11 15:52:42;;;;;;;25.57;13.20;;;;;;;3.54;73.82;101006.36;2134146;83;32963;-78
2022/02/11 15:55:47;;;;;;;22.37;12.60;;;;;;;3.47;73.87;101006.86;2123307;82;30295;-75
2022/02/11 15:58:48;;;;;;;75.32;36.50;;;;;;;3.38;73.89;101006.06;2150523;81;28270;-76
2022/02/11 16:01:55;;;;;;;73.12;33.18;;;;;;;3.29;73.82;101003.91;2157799;82;28791;-75
2022/02/11 16:04:57;;;;;;;63.33;28.65;;;;;;;3.18;73.86;101013.70;2153376;82;31981;-74
2022/02/11 16:07:59;;;;;;;46.68;22.75;;;;;;;3.07;73.82;101021.72;2076013;85;32619;-75
2022/02/11 16:11:02;;;;;;;46.63;22.48;;;;;;;2.95;73.74;101030.62;2076660;85;29489;-77
2022/02/11 16:14:06;;;;;;;44.80;24.07;;;;;;;2.82;73.84;101028.48;2077018;85;27810;-76
2022/02/11 16:17:10;;;;;;;45.85;24.40;;;;;;;2.68;73.83;101037.84;2075894;85;27930;-76
2022/02/11 16:20:12;;;;;;;68.00;30.15;;;;;;;2.56;73.91;101049.35;2076189;85;31902;-78
2022/02/11 16:23:17;;;;;;;85.85;43.00;;;;;;;2.46;74.07;101048.06;2076352;85;33132;-74
2022/02/11 16:26:19;;;;;;;98.92;47.13;;;;;;;2.36;74.16;101062.66;2041920;87;29712;-77
2022/02/11 16:29:21;;;;;;;90.05;41.23;;;;;;;2.27;74.24;101068.86;2040932;85;27894;-76
2022/02/11 16:32:24;;;;;;;72.60;34.75;;;;;;;2.19;74.29;101073.27;2040744;87;29488;-75
2022/02/11 16:35:26;;;;;;;58.33;26.97;;;;;;;2.10;74.33;101082.09;2018910;87;31036;-71
2022/02/11 16:38:31;;;;;;;55.83;27.22;;;;;;;2.02;74.46;101081.67;2068281;84;32987;-69
2022/02/11 16:41:31;;;;;;;51.77;24.70;;;;;;;1.96;74.40;101086.11;2076952;84;29358;-67
2022/02/11 16:44:34;;;;;;;52.55;22.30;;;;;;;1.88;74.32;101087.86;2113770;84;27590;-66
2022/02/11 16:47:36;;;;;;;56.83;26.15;;;;;;;1.78;74.46;101094.91;2110142;84;29866;-68
2022/02/11 16:50:40;;;;;;;53.70;23.92;;;;;;;1.65;74.49;101090.09;2104019;84;31077;-69
2022/02/11 16:53:45;;;;;;;41.02;22.22;;;;;;;1.55;74.50;101091.41;2109980;84;32964;-69
2022/02/11 16:56:47;;;;;;;37.33;19.95;;;;;;;1.43;74.54;101098.42;2126392;82;29398;-68
2022/02/11 16:59:50;;;;;;;28.77;16.95;;;;;;;1.31;74.71;101096.67;2157254;81;27738;-66
2022/02/11 17:02:52;;;;;;;28.70;16.20;;;;;;;1.21;74.82;101106.33;2158283;82;28677;-67
2022/02/11 17:05:54;;;;;;;33.10;18.52;;;;;;;1.12;75.08;101115.52;2158679;81;31060;-67
2022/02/11 17:08:58;;;;;;;34.58;20.57;;;;;;;1.04;75.25;101121.23;2158167;81;32988;-67
2022/02/11 17:11:59;;;;;;;33.25;20.40;;;;;;;0.97;75.44;101122.08;2158498;81;30388;-66
2022/02/11 17:15:03;;;;;;;36.35;20.05;;;;;;;0.89;75.58;101120.73;2158409;82;27645;-67
2022/02/11 17:18:05;;;;;;;35.28;19.20;;;;;;;0.84;75.77;101127.74;2157139;82;28100;-67
2022/02/11 17:21:07;;;;;;;25.50;16.37;;;;;;;0.81;76.17;101133.90;2166747;81;31165;-66
2022/02/11 17:24:14;;;;;;;27.95;16.75;;;;;;;0.80;76.42;101137.41;2180298;81;33132;-65
2022/02/11 17:27:13;;;;;;;26.52;16.40;;;;;;;0.81;76.60;101143.58;2180086;81;29497;-66
2022/02/11 17:30:15;;;;;;;86.70;45.17;;;;;;;0.81;76.79;101139.63;2178885;81;27604;-66
2022/02/11 17:33:18;;;;;;;26.85;16.00;;;;;;;0.81;77.02;101140.48;2149885;81;27715;-66
2022/02/11 17:36:20;;;;;;;24.65;13.40;;;;;;;0.81;77.05;101148.41;2137664;83;31025;-65
2022/02/11 17:39:23;;;;;;;25.85;13.58;;;;;;;0.81;77.40;101155.45;2110660;83;33959;-65
2022/02/11 17:42:25;;;;;;;26.85;14.73;;;;;;;0.82;77.33;101160.72;2137341;83;29382;-66
2022/02/11 17:45:28;;;;;;;25.55;14.20;;;;;;;0.83;77.40;101161.62;2165155;81;27744;-66
2022/02/11 17:48:30;;;;;;;25.20;16.10;;;;;;;0.83;77.54;101165.13;2179877;81;28713;-66
2022/02/11 17:51:35;;;;;;;29.72;18.85;;;;;;;0.84;77.69;101165.56;2177787;81;30409;-67
2022/02/11 17:54:37;;;;;;;28.47;17.27;;;;;;;0.84;77.68;101169.52;2163662;81;33110;-66